createdAt,value
2018-05-14T00:00:09.137Z,8.04672
2018-05-14T00:00:21.557Z,8.04672
2018-05-14T00:00:33.991Z,8.04672
2018-05-14T00:00:46.522Z,8.04672
2018-05-14T00:00:58.957Z,8.04672
2018-05-14T00:01:11.442Z,3.218688
2018-05-14T00:01:23.992Z,8.04672
2018-05-14T00:01:36.405Z,11.265408
2018-05-14T00:01:48.814Z,11.265408
2018-05-14T00:02:01.227Z,11.265408
2018-05-14T00:02:13.644Z,11.265408
2018-05-14T00:02:26.158Z,11.265408
2018-05-14T00:02:38.605Z,11.265408
2018-05-14T00:02:51.117Z,11.265408
2018-05-14T00:03:03.535Z,6.437376
2018-05-14T00:03:15.967Z,6.437376
2018-05-14T00:03:28.381Z,6.437376
2018-05-14T00:03:41.021Z,6.437376
2018-05-14T00:03:54.256Z,6.437376
2018-05-14T00:04:06.655Z,1.609344
2018-05-14T00:04:19.076Z,1.609344
2018-05-14T00:04:31.472Z,1.609344
2018-05-14T00:04:43.899Z,3.218688
2018-05-14T00:04:56.318Z,3.218688
2018-05-14T00:05:08.766Z,4.828032
2018-05-14T00:05:21.187Z,12.874752
2018-05-14T00:05:33.591Z,12.874752
2018-05-14T00:05:46.011Z,12.874752
2018-05-14T00:05:58.430Z,12.874752
2018-05-14T00:06:10.849Z,4.828032
2018-05-14T00:06:23.275Z,6.437376
2018-05-14T00:06:35.681Z,11.265408
2018-05-14T00:06:48.158Z,11.265408
2018-05-14T00:07:00.567Z,11.265408
2018-05-14T00:07:13.030Z,9.656064
2018-05-14T00:07:25.544Z,9.656064
2018-05-14T00:07:37.945Z,9.656064
2018-05-14T00:07:50.456Z,9.656064
2018-05-14T00:08:02.947Z,9.656064
2018-05-14T00:08:15.367Z,8.04672
2018-05-14T00:08:27.766Z,8.04672
2018-05-14T00:08:40.188Z,8.04672
2018-05-14T00:08:52.583Z,8.04672
2018-05-14T00:09:04.998Z,3.218688
2018-05-14T00:09:17.498Z,3.218688
2018-05-14T00:09:30.046Z,3.218688
2018-05-14T00:09:42.460Z,9.656064
2018-05-14T00:09:54.911Z,9.656064
2018-05-14T00:10:07.355Z,6.437376
2018-05-14T00:10:19.783Z,6.437376
2018-05-14T00:10:32.207Z,6.437376
2018-05-14T00:10:44.618Z,6.437376
2018-05-14T00:10:57.052Z,6.437376
2018-05-14T00:11:09.467Z,6.437376
2018-05-14T00:11:21.870Z,6.437376
2018-05-14T00:11:34.266Z,9.656064
2018-05-14T00:11:46.892Z,9.656064
2018-05-14T00:11:59.319Z,9.656064
2018-05-14T00:12:11.737Z,3.218688
2018-05-14T00:12:24.204Z,3.218688
2018-05-14T00:12:36.623Z,8.04672
2018-05-14T00:12:49.052Z,8.04672
2018-05-14T00:13:01.464Z,9.656064
2018-05-14T00:13:13.870Z,4.828032
2018-05-14T00:13:26.284Z,4.828032
2018-05-14T00:13:38.696Z,4.828032
2018-05-14T00:13:51.112Z,8.04672
2018-05-14T00:14:03.536Z,3.218688
2018-05-14T00:14:15.952Z,4.828032
2018-05-14T00:14:28.373Z,8.04672
2018-05-14T00:14:40.869Z,12.874752
2018-05-14T00:14:53.283Z,14.484096
2018-05-14T00:15:05.771Z,8.04672
2018-05-14T00:15:18.175Z,11.265408
2018-05-14T00:15:30.647Z,11.265408
2018-05-14T00:15:43.326Z,11.265408
2018-05-14T00:15:55.747Z,11.265408
2018-05-14T00:16:08.182Z,3.218688
2018-05-14T00:16:20.691Z,4.828032
2018-05-14T00:16:33.102Z,4.828032
2018-05-14T00:16:45.524Z,9.656064
2018-05-14T00:16:57.928Z,9.656064
2018-05-14T00:17:10.339Z,4.828032
2018-05-14T00:17:22.761Z,4.828032
2018-05-14T00:17:35.264Z,4.828032
2018-05-14T00:17:47.666Z,8.04672
2018-05-14T00:18:00.230Z,11.265408
2018-05-14T00:18:12.749Z,8.04672
2018-05-14T00:18:25.293Z,8.04672
2018-05-14T00:18:37.724Z,9.656064
2018-05-14T00:18:50.152Z,9.656064
2018-05-14T00:19:02.564Z,9.656064
2018-05-14T00:19:15.050Z,6.437376
2018-05-14T00:19:27.456Z,6.437376
2018-05-14T00:19:39.865Z,6.437376
2018-05-14T00:19:52.264Z,8.04672
2018-05-14T00:20:04.697Z,6.437376
2018-05-14T00:20:17.122Z,6.437376
2018-05-14T00:20:29.534Z,6.437376
2018-05-14T00:20:41.969Z,8.04672
2018-05-14T00:20:54.369Z,8.04672
2018-05-14T00:21:06.800Z,6.437376
2018-05-14T00:21:19.224Z,6.437376
2018-05-14T00:21:31.633Z,6.437376
2018-05-14T00:21:44.084Z,6.437376
2018-05-14T00:21:56.511Z,6.437376
2018-05-14T00:22:09.023Z,6.437376
2018-05-14T00:22:21.512Z,6.437376
2018-05-14T00:22:33.952Z,6.437376
2018-05-14T00:22:46.378Z,6.437376
2018-05-14T00:22:58.812Z,6.437376
2018-05-14T00:23:11.217Z,6.437376
2018-05-14T00:23:23.644Z,6.437376
2018-05-14T00:23:36.074Z,6.437376
2018-05-14T00:23:48.498Z,6.437376
2018-05-14T00:24:00.911Z,8.04672
2018-05-14T00:24:13.414Z,6.437376
2018-05-14T00:24:25.809Z,8.04672
2018-05-14T00:24:38.226Z,8.04672
2018-05-14T00:24:50.795Z,8.04672
2018-05-14T00:25:03.214Z,8.04672
2018-05-14T00:25:15.699Z,4.828032
2018-05-14T00:25:28.132Z,12.874752
2018-05-14T00:25:40.537Z,14.484096
2018-05-14T00:25:52.942Z,14.484096
2018-05-14T00:26:05.374Z,6.437376
2018-05-14T00:26:17.790Z,6.437376
2018-05-14T00:26:30.210Z,6.437376
2018-05-14T00:26:42.630Z,6.437376
2018-05-14T00:26:55.045Z,8.04672
2018-05-14T00:27:07.471Z,4.828032
2018-05-14T00:27:19.882Z,4.828032
2018-05-14T00:27:32.296Z,4.828032
2018-05-14T00:27:44.704Z,4.828032
2018-05-14T00:27:57.113Z,6.437376
2018-05-14T00:28:09.538Z,14.484096
2018-05-14T00:28:21.948Z,14.484096
2018-05-14T00:28:34.371Z,14.484096
2018-05-14T00:28:46.801Z,14.484096
2018-05-14T00:28:59.229Z,14.484096
2018-05-14T00:29:11.631Z,8.04672
2018-05-14T00:29:24.056Z,9.656064
2018-05-14T00:29:36.471Z,9.656064
2018-05-14T00:29:48.912Z,11.265408
2018-05-14T00:30:01.317Z,11.265408
2018-05-14T00:30:13.724Z,3.218688
2018-05-14T00:30:26.144Z,6.437376
2018-05-14T00:30:38.549Z,8.04672
2018-05-14T00:30:50.953Z,9.656064
2018-05-14T00:31:03.378Z,9.656064
2018-05-14T00:31:15.816Z,3.218688
2018-05-14T00:31:28.220Z,8.04672
2018-05-14T00:31:40.623Z,11.265408
2018-05-14T00:31:53.092Z,11.265408
2018-05-14T00:32:05.519Z,6.437376
2018-05-14T00:32:17.969Z,6.437376
2018-05-14T00:32:30.364Z,8.04672
2018-05-14T00:32:42.770Z,8.04672
2018-05-14T00:32:55.270Z,8.04672
2018-05-14T00:33:07.703Z,1.609344
2018-05-14T00:33:20.151Z,1.609344
2018-05-14T00:33:32.569Z,1.609344
2018-05-14T00:33:44.979Z,8.04672
2018-05-14T00:33:57.391Z,8.04672
2018-05-14T00:34:09.885Z,3.218688
2018-05-14T00:34:22.294Z,3.218688
2018-05-14T00:34:34.782Z,3.218688
2018-05-14T00:34:47.254Z,6.437376
2018-05-14T00:34:59.665Z,6.437376
2018-05-14T00:35:12.193Z,3.218688
2018-05-14T00:35:24.620Z,6.437376
2018-05-14T00:35:37.035Z,6.437376
2018-05-14T00:35:49.563Z,6.437376
2018-05-14T00:36:01.984Z,6.437376
2018-05-14T00:36:14.394Z,3.218688
2018-05-14T00:36:26.803Z,4.828032
2018-05-14T00:36:39.218Z,6.437376
2018-05-14T00:36:51.701Z,6.437376
2018-05-14T00:37:04.122Z,3.218688
2018-05-14T00:37:16.646Z,4.828032
2018-05-14T00:37:29.047Z,8.04672
2018-05-14T00:37:41.546Z,8.04672
2018-05-14T00:37:53.948Z,8.04672
2018-05-14T00:38:06.388Z,4.828032
2018-05-14T00:38:18.812Z,6.437376
2018-05-14T00:38:31.248Z,6.437376
2018-05-14T00:38:43.658Z,6.437376
2018-05-14T00:38:56.074Z,6.437376
2018-05-14T00:39:08.482Z,8.04672
2018-05-14T00:39:20.924Z,8.04672
2018-05-14T00:39:33.381Z,8.04672
2018-05-14T00:39:45.803Z,8.04672
2018-05-14T00:39:58.218Z,8.04672
2018-05-14T00:40:10.641Z,4.828032
2018-05-14T00:40:23.065Z,4.828032
2018-05-14T00:40:35.493Z,4.828032
2018-05-14T00:40:47.942Z,4.828032
2018-05-14T00:41:00.338Z,8.04672
2018-05-14T00:41:12.730Z,8.04672
2018-05-14T00:41:25.143Z,8.04672
2018-05-14T00:41:37.569Z,8.04672
2018-05-14T00:41:49.994Z,8.04672
2018-05-14T00:42:02.394Z,11.265408
2018-05-14T00:42:14.796Z,11.265408
2018-05-14T00:42:27.218Z,12.874752
2018-05-14T00:42:39.641Z,14.484096
2018-05-14T00:42:52.039Z,14.484096
2018-05-14T00:43:04.438Z,6.437376
2018-05-14T00:43:16.848Z,9.656064
2018-05-14T00:43:29.321Z,9.656064
2018-05-14T00:43:41.732Z,9.656064
2018-05-14T00:43:54.176Z,12.874752
2018-05-14T00:44:06.591Z,9.656064
2018-05-14T00:44:19.007Z,9.656064
2018-05-14T00:44:31.420Z,9.656064
2018-05-14T00:44:43.897Z,9.656064
2018-05-14T00:44:56.307Z,9.656064
2018-05-14T00:45:08.811Z,3.218688
2018-05-14T00:45:21.223Z,3.218688
2018-05-14T00:45:33.622Z,3.218688
2018-05-14T00:45:46.043Z,3.218688
2018-05-14T00:45:58.460Z,3.218688
2018-05-14T00:46:10.875Z,4.828032
2018-05-14T00:46:23.294Z,8.04672
2018-05-14T00:46:35.696Z,8.04672
2018-05-14T00:46:48.095Z,8.04672
2018-05-14T00:47:00.606Z,9.656064
2018-05-14T00:47:13.061Z,8.04672
2018-05-14T00:47:26.004Z,8.04672
2018-05-14T00:47:38.410Z,8.04672
2018-05-14T00:47:50.801Z,11.265408
2018-05-14T00:48:03.214Z,11.265408
2018-05-14T00:48:15.721Z,9.656064
2018-05-14T00:48:28.120Z,9.656064
2018-05-14T00:48:40.521Z,9.656064
2018-05-14T00:48:52.961Z,9.656064
2018-05-14T00:49:05.376Z,1.609344
2018-05-14T00:49:17.876Z,8.04672
2018-05-14T00:49:31.095Z,9.656064
2018-05-14T00:49:43.959Z,9.656064
2018-05-14T00:49:56.365Z,9.656064
2018-05-14T00:50:08.766Z,3.218688
2018-05-14T00:50:21.159Z,3.218688
2018-05-14T00:50:33.570Z,3.218688
2018-05-14T00:50:45.991Z,4.828032
2018-05-14T00:50:58.517Z,4.828032
2018-05-14T00:51:10.943Z,6.437376
2018-05-14T00:51:23.362Z,6.437376
2018-05-14T00:51:35.763Z,8.04672
2018-05-14T00:51:48.188Z,9.656064
2018-05-14T00:52:00.605Z,9.656064
2018-05-14T00:52:13.043Z,8.04672
2018-05-14T00:52:25.451Z,8.04672
2018-05-14T00:52:37.880Z,8.04672
2018-05-14T00:52:50.293Z,11.265408
2018-05-14T00:53:02.744Z,12.874752
2018-05-14T00:53:15.148Z,8.04672
2018-05-14T00:53:27.563Z,11.265408
2018-05-14T00:53:39.981Z,11.265408
2018-05-14T00:53:52.405Z,11.265408
2018-05-14T00:54:04.892Z,8.04672
2018-05-14T00:54:17.290Z,8.04672
2018-05-14T00:54:29.800Z,8.04672
2018-05-14T00:54:42.196Z,8.04672
2018-05-14T00:54:54.613Z,8.04672
2018-05-14T00:55:07.036Z,4.828032
2018-05-14T00:55:19.443Z,4.828032
2018-05-14T00:55:31.843Z,4.828032
2018-05-14T00:55:44.248Z,4.828032
2018-05-14T00:55:56.681Z,4.828032
2018-05-14T00:56:09.112Z,3.218688
2018-05-14T00:56:21.527Z,4.828032
2018-05-14T00:56:33.952Z,4.828032
2018-05-14T00:56:46.373Z,4.828032
2018-05-14T00:56:58.816Z,8.04672
2018-05-14T00:57:11.258Z,6.437376
2018-05-14T00:57:23.661Z,6.437376
2018-05-14T00:57:36.156Z,6.437376
2018-05-14T00:57:48.587Z,6.437376
2018-05-14T00:58:00.996Z,6.437376
2018-05-14T00:58:13.406Z,6.437376
2018-05-14T00:58:25.819Z,8.04672
2018-05-14T00:58:38.301Z,8.04672
2018-05-14T00:58:50.695Z,8.04672
2018-05-14T00:59:03.090Z,8.04672
2018-05-14T00:59:15.521Z,6.437376
2018-05-14T00:59:27.921Z,8.04672
2018-05-14T00:59:40.340Z,8.04672
2018-05-14T00:59:52.739Z,8.04672
2018-05-14T01:00:05.191Z,3.218688
2018-05-14T01:00:17.802Z,6.437376
2018-05-14T01:00:30.239Z,8.04672
2018-05-14T01:00:42.689Z,8.04672
2018-05-14T01:00:55.126Z,8.04672
2018-05-14T01:01:07.569Z,6.437376
2018-05-14T01:01:20.000Z,6.437376
2018-05-14T01:01:32.412Z,6.437376
2018-05-14T01:01:44.827Z,6.437376
2018-05-14T01:01:57.249Z,6.437376
2018-05-14T01:02:09.677Z,6.437376
2018-05-14T01:02:22.117Z,11.265408
2018-05-14T01:02:34.545Z,11.265408
2018-05-14T01:02:46.965Z,11.265408
2018-05-14T01:02:59.421Z,12.874752
2018-05-14T01:03:11.854Z,6.437376
2018-05-14T01:03:24.293Z,6.437376
2018-05-14T01:03:36.714Z,8.04672
2018-05-14T01:03:49.136Z,11.265408
2018-05-14T01:04:01.567Z,14.484096
2018-05-14T01:04:14.070Z,11.265408
2018-05-14T01:04:26.517Z,11.265408
2018-05-14T01:04:38.936Z,11.265408
2018-05-14T01:04:51.350Z,11.265408
2018-05-14T01:05:03.874Z,1.609344
2018-05-14T01:05:16.294Z,3.218688
2018-05-14T01:05:28.695Z,6.437376
2018-05-14T01:05:41.133Z,8.04672
2018-05-14T01:05:53.541Z,8.04672
2018-05-14T01:06:06.030Z,3.218688
2018-05-14T01:06:18.424Z,3.218688
2018-05-14T01:06:31.374Z,4.828032
2018-05-14T01:06:44.580Z,9.656064
2018-05-14T01:06:56.997Z,9.656064
2018-05-14T01:07:09.399Z,3.218688
2018-05-14T01:07:21.915Z,3.218688
2018-05-14T01:07:34.327Z,3.218688
2018-05-14T01:07:46.737Z,3.218688
2018-05-14T01:07:59.142Z,3.218688
2018-05-14T01:08:11.540Z,1.609344
2018-05-14T01:08:23.954Z,1.609344
2018-05-14T01:08:36.458Z,1.609344
2018-05-14T01:08:48.956Z,3.218688
2018-05-14T01:09:01.362Z,3.218688
2018-05-14T01:09:13.800Z,1.609344
2018-05-14T01:09:26.206Z,1.609344
2018-05-14T01:09:38.633Z,4.828032
2018-05-14T01:09:51.043Z,8.04672
2018-05-14T01:10:03.471Z,9.656064
2018-05-14T01:10:15.889Z,9.656064
2018-05-14T01:10:28.303Z,9.656064
2018-05-14T01:10:40.695Z,9.656064
2018-05-14T01:10:53.120Z,9.656064
2018-05-14T01:11:05.533Z,6.437376
2018-05-14T01:11:17.937Z,6.437376
2018-05-14T01:11:30.438Z,8.04672
2018-05-14T01:11:42.981Z,8.04672
2018-05-14T01:11:55.392Z,8.04672
2018-05-14T01:12:07.797Z,9.656064
2018-05-14T01:12:20.208Z,9.656064
2018-05-14T01:12:32.614Z,9.656064
2018-05-14T01:12:45.020Z,9.656064
2018-05-14T01:12:57.508Z,9.656064
2018-05-14T01:13:09.923Z,3.218688
2018-05-14T01:13:22.326Z,11.265408
2018-05-14T01:13:34.731Z,11.265408
2018-05-14T01:13:47.151Z,11.265408
2018-05-14T01:13:59.555Z,11.265408
2018-05-14T01:14:11.969Z,3.218688
2018-05-14T01:14:24.372Z,3.218688
2018-05-14T01:14:36.774Z,4.828032
2018-05-14T01:14:49.182Z,4.828032
2018-05-14T01:15:01.595Z,4.828032
2018-05-14T01:15:14.013Z,3.218688
2018-05-14T01:15:26.439Z,8.04672
2018-05-14T01:15:38.921Z,8.04672
2018-05-14T01:15:51.331Z,11.265408
2018-05-14T01:16:03.753Z,8.04672
2018-05-14T01:16:16.156Z,8.04672
2018-05-14T01:16:28.566Z,8.04672
2018-05-14T01:16:40.966Z,8.04672
2018-05-14T01:16:53.378Z,9.656064
2018-05-14T01:17:05.778Z,9.656064
2018-05-14T01:17:18.187Z,9.656064
2018-05-14T01:17:30.586Z,9.656064
2018-05-14T01:17:43.093Z,9.656064
2018-05-14T01:17:55.495Z,9.656064
2018-05-14T01:18:07.906Z,6.437376
2018-05-14T01:18:20.424Z,6.437376
2018-05-14T01:18:32.845Z,6.437376
2018-05-14T01:18:45.355Z,6.437376
2018-05-14T01:18:57.766Z,11.265408
2018-05-14T01:19:10.165Z,11.265408
2018-05-14T01:19:22.568Z,11.265408
2018-05-14T01:19:34.979Z,11.265408
2018-05-14T01:19:47.393Z,11.265408
2018-05-14T01:19:59.792Z,11.265408
2018-05-14T01:20:12.197Z,1.609344
2018-05-14T01:20:24.617Z,6.437376
2018-05-14T01:20:37.028Z,8.04672
2018-05-14T01:20:49.428Z,8.04672
2018-05-14T01:21:01.832Z,8.04672
2018-05-14T01:21:14.224Z,8.04672
2018-05-14T01:21:26.623Z,11.265408
2018-05-14T01:21:39.021Z,16.09344
2018-05-14T01:21:51.404Z,16.09344
2018-05-14T01:22:03.798Z,6.437376
2018-05-14T01:22:16.200Z,9.656064
2018-05-14T01:22:28.610Z,9.656064
2018-05-14T01:22:41.023Z,11.265408
2018-05-14T01:22:53.425Z,11.265408
2018-05-14T01:23:05.858Z,9.656064
2018-05-14T01:23:18.407Z,9.656064
2018-05-14T01:23:30.890Z,9.656064
2018-05-14T01:23:43.299Z,9.656064
2018-05-14T01:23:55.782Z,9.656064
2018-05-14T01:24:08.178Z,6.437376
2018-05-14T01:24:20.587Z,6.437376
2018-05-14T01:24:32.997Z,6.437376
2018-05-14T01:24:45.537Z,8.04672
2018-05-14T01:24:57.945Z,8.04672
2018-05-14T01:25:10.346Z,8.04672
2018-05-14T01:25:22.759Z,8.04672
2018-05-14T01:25:35.157Z,8.04672
2018-05-14T01:25:47.574Z,8.04672
2018-05-14T01:25:59.969Z,8.04672
2018-05-14T01:26:12.393Z,4.828032
2018-05-14T01:26:24.815Z,8.04672
2018-05-14T01:26:37.236Z,8.04672
2018-05-14T01:26:49.657Z,8.04672
2018-05-14T01:27:02.056Z,8.04672
2018-05-14T01:27:14.464Z,11.265408
2018-05-14T01:27:26.915Z,11.265408
2018-05-14T01:27:39.308Z,11.265408
2018-05-14T01:27:51.709Z,11.265408
2018-05-14T01:28:04.332Z,1.609344
2018-05-14T01:28:17.795Z,8.04672
2018-05-14T01:28:30.196Z,14.484096
2018-05-14T01:28:42.615Z,14.484096
2018-05-14T01:28:55.019Z,14.484096
2018-05-14T01:29:07.449Z,9.656064
2018-05-14T01:29:19.873Z,14.484096
2018-05-14T01:29:32.303Z,14.484096
2018-05-14T01:29:44.741Z,14.484096
2018-05-14T01:29:57.149Z,14.484096
2018-05-14T01:30:09.590Z,9.656064
2018-05-14T01:30:22.008Z,9.656064
2018-05-14T01:30:34.414Z,9.656064
2018-05-14T01:30:46.825Z,9.656064
2018-05-14T01:30:59.233Z,14.484096
2018-05-14T01:31:11.626Z,11.265408
2018-05-14T01:31:24.027Z,11.265408
2018-05-14T01:31:36.526Z,11.265408
2018-05-14T01:31:48.937Z,11.265408
2018-05-14T01:32:01.344Z,11.265408
2018-05-14T01:32:13.771Z,8.04672
2018-05-14T01:32:26.178Z,8.04672
2018-05-14T01:32:38.594Z,8.04672
2018-05-14T01:32:51.011Z,8.04672
2018-05-14T01:33:03.430Z,8.04672
2018-05-14T01:33:15.835Z,8.04672
2018-05-14T01:33:28.256Z,8.04672
2018-05-14T01:33:40.666Z,8.04672
2018-05-14T01:33:53.102Z,8.04672
2018-05-14T01:34:05.508Z,4.828032
2018-05-14T01:34:17.926Z,4.828032
2018-05-14T01:34:30.364Z,4.828032
2018-05-14T01:34:42.784Z,9.656064
2018-05-14T01:34:55.251Z,14.484096
2018-05-14T01:35:07.664Z,11.265408
2018-05-14T01:35:20.065Z,11.265408
2018-05-14T01:35:32.484Z,11.265408
2018-05-14T01:35:44.905Z,11.265408
2018-05-14T01:35:57.396Z,11.265408
2018-05-14T01:36:09.815Z,8.04672
2018-05-14T01:36:22.240Z,9.656064
2018-05-14T01:36:34.649Z,9.656064
2018-05-14T01:36:47.068Z,9.656064
2018-05-14T01:36:59.475Z,9.656064
2018-05-14T01:37:11.901Z,3.218688
2018-05-14T01:37:24.326Z,3.218688
2018-05-14T01:37:36.735Z,3.218688
2018-05-14T01:37:49.157Z,3.218688
2018-05-14T01:38:01.693Z,3.218688
2018-05-14T01:38:14.099Z,1.609344
2018-05-14T01:38:26.508Z,3.218688
2018-05-14T01:38:38.960Z,9.656064
2018-05-14T01:38:51.363Z,12.874752
2018-05-14T01:39:03.774Z,6.437376
2018-05-14T01:39:16.185Z,6.437376
2018-05-14T01:39:28.598Z,6.437376
2018-05-14T01:39:41.007Z,6.437376
2018-05-14T01:39:53.424Z,6.437376
2018-05-14T01:40:05.836Z,8.04672
2018-05-14T01:40:18.241Z,8.04672
2018-05-14T01:40:30.681Z,8.04672
2018-05-14T01:40:43.101Z,8.04672
2018-05-14T01:40:55.541Z,12.874752
2018-05-14T01:41:07.938Z,9.656064
2018-05-14T01:41:20.381Z,12.874752
2018-05-14T01:41:32.868Z,12.874752
2018-05-14T01:41:45.273Z,12.874752
2018-05-14T01:41:57.676Z,12.874752
2018-05-14T01:42:10.085Z,11.265408
2018-05-14T01:42:22.512Z,11.265408
2018-05-14T01:42:34.925Z,11.265408
2018-05-14T01:42:47.329Z,11.265408
2018-05-14T01:42:59.780Z,11.265408
2018-05-14T01:43:12.202Z,8.04672
2018-05-14T01:43:24.619Z,9.656064
2018-05-14T01:43:37.035Z,12.874752
2018-05-14T01:43:49.449Z,12.874752
2018-05-14T01:44:01.844Z,12.874752
2018-05-14T01:44:14.255Z,11.265408
2018-05-14T01:44:26.660Z,12.874752
2018-05-14T01:44:39.073Z,12.874752
2018-05-14T01:44:51.501Z,12.874752
2018-05-14T01:45:03.928Z,1.609344
2018-05-14T01:45:16.328Z,6.437376
2018-05-14T01:45:28.736Z,6.437376
2018-05-14T01:45:41.153Z,8.04672
2018-05-14T01:45:53.557Z,8.04672
2018-05-14T01:46:05.952Z,3.218688
2018-05-14T01:46:18.347Z,12.874752
2018-05-14T01:46:30.758Z,12.874752
2018-05-14T01:46:43.165Z,14.484096
2018-05-14T01:46:55.585Z,16.09344
2018-05-14T01:47:08.010Z,12.874752
2018-05-14T01:47:20.412Z,12.874752
2018-05-14T01:47:32.822Z,12.874752
2018-05-14T01:47:45.234Z,12.874752
2018-05-14T01:47:57.705Z,12.874752
2018-05-14T01:48:10.103Z,6.437376
2018-05-14T01:48:22.619Z,6.437376
2018-05-14T01:48:35.035Z,9.656064
2018-05-14T01:48:47.443Z,9.656064
2018-05-14T01:48:59.850Z,9.656064
2018-05-14T01:49:12.266Z,8.04672
2018-05-14T01:49:24.677Z,8.04672
2018-05-14T01:49:37.098Z,8.04672
2018-05-14T01:49:49.528Z,9.656064
2018-05-14T01:50:02.013Z,11.265408
2018-05-14T01:50:14.440Z,4.828032
2018-05-14T01:50:26.861Z,11.265408
2018-05-14T01:50:39.308Z,11.265408
2018-05-14T01:50:56.868Z,11.265408
2018-05-14T01:51:09.347Z,4.828032
2018-05-14T01:51:21.775Z,4.828032
2018-05-14T01:51:34.175Z,4.828032
2018-05-14T01:51:46.583Z,4.828032
2018-05-14T01:51:58.989Z,14.484096
2018-05-14T01:52:11.415Z,14.484096
2018-05-14T01:52:23.822Z,14.484096
2018-05-14T01:52:36.224Z,14.484096
2018-05-14T01:52:48.648Z,14.484096
2018-05-14T01:53:01.060Z,14.484096
2018-05-14T01:53:13.464Z,3.218688
2018-05-14T01:53:25.894Z,8.04672
2018-05-14T01:53:38.312Z,9.656064
2018-05-14T01:53:50.718Z,9.656064
2018-05-14T01:54:03.402Z,9.656064
2018-05-14T01:54:15.827Z,4.828032
2018-05-14T01:54:28.246Z,9.656064
2018-05-14T01:54:40.664Z,16.09344
2018-05-14T01:54:53.157Z,16.09344
2018-05-14T01:55:05.677Z,6.437376
2018-05-14T01:55:18.091Z,6.437376
2018-05-14T01:55:30.498Z,11.265408
2018-05-14T01:55:42.913Z,11.265408
2018-05-14T01:55:55.329Z,11.265408
2018-05-14T01:56:07.754Z,11.265408
2018-05-14T01:56:20.172Z,11.265408
2018-05-14T01:56:32.618Z,11.265408
2018-05-14T01:56:45.040Z,11.265408
2018-05-14T01:56:57.446Z,11.265408
2018-05-14T01:57:09.866Z,6.437376
2018-05-14T01:57:22.407Z,9.656064
2018-05-14T01:57:34.825Z,9.656064
2018-05-14T01:57:47.244Z,9.656064
2018-05-14T01:57:59.724Z,9.656064
2018-05-14T01:58:12.143Z,12.874752
2018-05-14T01:58:24.576Z,12.874752
2018-05-14T01:58:36.989Z,14.484096
2018-05-14T01:58:49.400Z,16.09344
2018-05-14T01:59:01.878Z,16.09344
2018-05-14T01:59:14.310Z,11.265408
2018-05-14T01:59:26.746Z,11.265408
2018-05-14T01:59:39.169Z,11.265408
2018-05-14T01:59:51.581Z,11.265408
2018-05-14T02:00:04.031Z,14.484096
2018-05-14T02:00:16.629Z,14.484096
2018-05-14T02:00:29.135Z,14.484096
2018-05-14T02:00:41.657Z,14.484096
2018-05-14T02:00:54.084Z,14.484096
2018-05-14T02:01:06.606Z,8.04672
2018-05-14T02:01:19.040Z,8.04672
2018-05-14T02:01:31.472Z,9.656064
2018-05-14T02:01:43.894Z,9.656064
2018-05-14T02:01:56.308Z,16.09344
2018-05-14T02:02:08.714Z,11.265408
2018-05-14T02:02:21.128Z,11.265408
2018-05-14T02:02:33.548Z,11.265408
2018-05-14T02:02:45.961Z,11.265408
2018-05-14T02:02:58.384Z,11.265408
2018-05-14T02:03:10.805Z,3.218688
2018-05-14T02:03:23.245Z,8.04672
2018-05-14T02:03:35.697Z,9.656064
2018-05-14T02:03:48.101Z,9.656064
2018-05-14T02:04:00.509Z,9.656064
2018-05-14T02:04:13.027Z,8.04672
2018-05-14T02:04:25.432Z,8.04672
2018-05-14T02:04:37.852Z,8.04672
2018-05-14T02:04:50.276Z,8.04672
2018-05-14T02:05:02.680Z,8.04672
2018-05-14T02:05:15.107Z,11.265408
2018-05-14T02:05:27.537Z,11.265408
2018-05-14T02:05:39.962Z,11.265408
2018-05-14T02:05:52.371Z,11.265408
2018-05-14T02:06:04.777Z,8.04672
2018-05-14T02:06:17.187Z,11.265408
2018-05-14T02:06:29.617Z,11.265408
2018-05-14T02:06:42.022Z,17.702784
2018-05-14T02:06:54.937Z,17.702784
2018-05-14T02:07:07.658Z,11.265408
2018-05-14T02:07:20.075Z,11.265408
2018-05-14T02:07:32.477Z,12.874752
2018-05-14T02:07:44.883Z,12.874752
2018-05-14T02:07:57.295Z,12.874752
2018-05-14T02:08:09.701Z,8.04672
2018-05-14T02:08:22.105Z,8.04672
2018-05-14T02:08:34.567Z,9.656064
2018-05-14T02:08:46.987Z,9.656064
2018-05-14T02:08:59.386Z,9.656064
2018-05-14T02:09:11.863Z,3.218688
2018-05-14T02:09:24.285Z,6.437376
2018-05-14T02:09:36.704Z,8.04672
2018-05-14T02:09:49.121Z,8.04672
2018-05-14T02:10:01.539Z,8.04672
2018-05-14T02:10:14.028Z,3.218688
2018-05-14T02:10:26.438Z,6.437376
2018-05-14T02:10:38.855Z,8.04672
2018-05-14T02:10:51.289Z,8.04672
2018-05-14T02:11:03.711Z,8.04672
2018-05-14T02:11:16.123Z,3.218688
2018-05-14T02:11:28.543Z,3.218688
2018-05-14T02:11:41.049Z,6.437376
2018-05-14T02:11:53.461Z,6.437376
2018-05-14T02:12:06.009Z,6.437376
2018-05-14T02:12:18.408Z,6.437376
2018-05-14T02:12:30.869Z,9.656064
2018-05-14T02:12:43.268Z,14.484096
2018-05-14T02:12:55.767Z,14.484096
2018-05-14T02:13:08.176Z,3.218688
2018-05-14T02:13:20.594Z,6.437376
2018-05-14T02:13:33.016Z,8.04672
2018-05-14T02:13:45.430Z,9.656064
2018-05-14T02:13:57.843Z,9.656064
2018-05-14T02:14:10.260Z,6.437376
2018-05-14T02:14:22.662Z,6.437376
2018-05-14T02:14:35.071Z,9.656064
2018-05-14T02:14:47.514Z,9.656064
2018-05-14T02:14:59.933Z,11.265408
2018-05-14T02:15:12.350Z,12.874752
2018-05-14T02:15:24.772Z,12.874752
2018-05-14T02:15:37.348Z,12.874752
2018-05-14T02:15:49.769Z,12.874752
2018-05-14T02:16:02.196Z,12.874752
2018-05-14T02:16:14.596Z,8.04672
2018-05-14T02:16:27.040Z,9.656064
2018-05-14T02:16:39.439Z,11.265408
2018-05-14T02:16:51.856Z,11.265408
2018-05-14T02:17:04.382Z,1.609344
2018-05-14T02:17:16.770Z,8.04672
2018-05-14T02:17:29.181Z,11.265408
2018-05-14T02:17:41.579Z,11.265408
2018-05-14T02:17:54.041Z,11.265408
2018-05-14T02:18:06.456Z,3.218688
2018-05-14T02:18:19.050Z,3.218688
2018-05-14T02:18:31.454Z,8.04672
2018-05-14T02:18:43.863Z,8.04672
2018-05-14T02:18:56.375Z,8.04672
2018-05-14T02:19:08.787Z,6.437376
2018-05-14T02:19:21.200Z,8.04672
2018-05-14T02:19:33.617Z,8.04672
2018-05-14T02:19:46.025Z,9.656064
2018-05-14T02:19:58.422Z,9.656064
2018-05-14T02:20:10.846Z,8.04672
2018-05-14T02:20:23.283Z,11.265408
2018-05-14T02:20:35.692Z,12.874752
2018-05-14T02:20:48.113Z,12.874752
2018-05-14T02:21:00.524Z,12.874752
2018-05-14T02:21:12.955Z,6.437376
2018-05-14T02:21:25.352Z,6.437376
2018-05-14T02:21:37.779Z,6.437376
2018-05-14T02:21:50.186Z,6.437376
2018-05-14T02:22:02.597Z,6.437376
2018-05-14T02:22:15.015Z,6.437376
2018-05-14T02:22:27.430Z,8.04672
2018-05-14T02:22:39.840Z,8.04672
2018-05-14T02:22:52.238Z,8.04672
2018-05-14T02:23:04.646Z,1.609344
2018-05-14T02:23:17.081Z,4.828032
2018-05-14T02:23:29.490Z,8.04672
2018-05-14T02:23:41.902Z,8.04672
2018-05-14T02:23:54.313Z,8.04672
2018-05-14T02:24:06.730Z,8.04672
2018-05-14T02:24:19.224Z,9.656064
2018-05-14T02:24:31.630Z,9.656064
2018-05-14T02:24:44.242Z,9.656064
2018-05-14T02:24:56.659Z,9.656064
2018-05-14T02:25:09.146Z,3.218688
2018-05-14T02:25:21.553Z,8.04672
2018-05-14T02:25:34.050Z,9.656064
2018-05-14T02:25:46.538Z,9.656064
2018-05-14T02:25:58.943Z,9.656064